Time;durP1;ratioP1;P1;durP2;ratioP2;P2;SDS_P1;SDS_P2;PMS_P1;PMS_P2;Temp;Humidity;BMP_temperature;BMP_pressure;BME280_temperature;BME280_humidity;BME280_pressure;Samples;Min_cycle;Max_cycle;Signal;HPM_P1;HPM_P2
2023/08/05 00:00:47;;;;;;;7.32;3.40;;;13.50;99.90;;;;;;4960664;28;20042;-70
2023/08/05 00:03:13;;;;;;;9.18;4.35;;;13.50;99.90;;;;;;4960579;28;20047;-69
2023/08/05 00:05:38;;;;;;;7.93;4.85;;;13.50;99.90;;;;;;4944923;28;20537;-69
2023/08/05 00:08:08;;;;;;;10.93;5.57;;;13.40;99.90;;;;;;4960854;28;20081;-70
2023/08/05 00:10:34;;;;;;;11.25;5.10;;;13.40;99.90;;;;;;4960629;28;20034;-69
2023/08/05 00:13:00;;;;;;;7.55;3.90;;;13.30;99.90;;;;;;4960548;28;20133;-70
2023/08/05 00:15:26;;;;;;;6.72;3.50;;;13.30;99.90;;;;;;4944444;28;20034;-72
2023/08/05 00:17:52;;;;;;;7.30;4.00;;;13.30;99.90;;;;;;4944365;28;20093;-71
2023/08/05 00:20:18;;;;;;;6.18;3.58;;;13.30;99.90;;;;;;4960722;28;20047;-71
2023/08/05 00:22:44;;;;;;;7.28;4.10;;;13.40;99.90;;;;;;4944362;28;20553;-71
2023/08/05 00:25:10;;;;;;;6.72;3.67;;;13.40;99.90;;;;;;4960178;28;20434;-70
2023/08/05 00:27:36;;;;;;;7.82;4.55;;;13.40;99.90;;;;;;4960454;28;20043;-70
2023/08/05 00:30:03;;;;;;;8.77;4.28;;;13.40;99.90;;;;;;4944354;28;20050;-71
2023/08/05 00:32:29;;;;;;;10.25;4.60;;;13.40;99.90;;;;;;4944531;28;20054;-69
2023/08/05 00:34:57;;;;;;;8.73;4.05;;;13.50;99.90;;;;;;4929228;28;20054;-71
2023/08/05 00:37:23;;;;;;;8.00;4.35;;;13.50;99.90;;;;;;4960021;28;20549;-70
2023/08/05 00:39:48;;;;;;;9.63;4.30;;;13.50;99.90;;;;;;4959860;28;20062;-70
2023/08/05 00:42:18;;;;;;;11.27;5.00;;;13.50;99.90;;;;;;4960051;28;20042;-71
2023/08/05 00:44:47;;;;;;;11.32;4.80;;;13.50;99.90;;;;;;4959864;28;20050;-72
2023/08/05 00:47:18;;;;;;;9.48;4.90;;;13.50;99.90;;;;;;4944472;28;20050;-70
2023/08/05 00:49:54;;;;;;;8.32;4.60;;;13.50;99.90;;;;;;4959899;28;20039;-71
2023/08/05 00:52:23;;;;;;;8.60;4.38;;;13.50;99.90;;;;;;4959910;28;20049;-71
2023/08/05 00:54:50;;;;;;;9.77;5.10;;;13.50;99.90;;;;;;4944074;28;20508;-69
2023/08/05 00:57:26;;;;;;;9.70;4.47;;;13.50;99.90;;;;;;4944302;28;20046;-69
2023/08/05 00:59:51;;;;;;;10.63;5.00;;;13.60;99.90;;;;;;4959638;28;20129;-70
2023/08/05 01:02:17;;;;;;;11.40;5.65;;;13.60;99.90;;;;;;4943658;28;20117;-70
2023/08/05 01:04:44;;;;;;;7.63;4.00;;;13.60;99.90;;;;;;4959484;28;20050;-70
2023/08/05 01:07:14;;;;;;;8.32;4.90;;;13.60;99.90;;;;;;4944030;28;20078;-70
2023/08/05 01:09:40;;;;;;;9.40;4.13;;;13.60;99.90;;;;;;4944191;28;20046;-69
2023/08/05 01:12:07;;;;;;;8.90;4.60;;;13.70;99.90;;;;;;4942862;28;20047;-69
2023/08/05 01:14:32;;;;;;;10.70;5.18;;;13.70;99.90;;;;;;4927706;28;20125;-69
2023/08/05 01:16:58;;;;;;;10.15;4.18;;;13.70;99.90;;;;;;4959272;28;20603;-69
2023/08/05 01:19:26;;;;;;;7.25;3.72;;;13.70;99.90;;;;;;4943452;28;20043;-69
2023/08/05 01:22:02;;;;;;;7.65;3.95;;;13.70;99.90;;;;;;4959552;28;20042;-69
2023/08/05 01:25:05;;;;;;;6.70;3.78;;;13.80;99.90;;;;;;4959160;28;20046;-69
2023/08/05 01:27:33;;;;;;;7.53;3.72;;;13.80;99.90;;;;;;4959087;28;20051;-70
2023/08/05 01:29:59;;;;;;;8.68;3.95;;;13.80;99.90;;;;;;4959495;28;20042;-70
2023/08/05 01:32:27;;;;;;;10.57;4.50;;;13.80;99.90;;;;;;4943253;28;20035;-69
2023/08/05 01:34:54;;;;;;;8.00;4.35;;;13.80;99.90;;;;;;4959048;28;20047;-71
2023/08/05 01:37:20;;;;;;;8.90;4.70;;;13.80;99.90;;;;;;4959258;28;20605;-68
2023/08/05 01:39:55;;;;;;;8.63;5.07;;;13.80;99.90;;;;;;4945341;28;20496;-69
2023/08/05 01:42:23;;;;;;;8.05;4.75;;;13.80;99.90;;;;;;4943159;28;20056;-69
2023/08/05 01:44:58;;;;;;;9.30;4.82;;;13.70;99.90;;;;;;4942661;28;20051;-70
2023/08/05 01:47:23;;;;;;;10.68;5.28;;;13.70;99.90;;;;;;4959424;28;20497;-70
2023/08/05 01:49:58;;;;;;;9.60;4.47;;;13.70;99.90;;;;;;4958769;28;20038;-70
2023/08/05 01:52:24;;;;;;;8.95;4.40;;;13.70;99.90;;;;;;4942639;28;20039;-70
2023/08/05 01:54:50;;;;;;;8.32;4.05;;;13.60;99.90;;;;;;4926989;28;20050;-70
2023/08/05 01:57:16;;;;;;;10.88;4.90;;;13.60;99.90;;;;;;4927144;28;20089;-70
2023/08/05 01:59:42;;;;;;;7.93;4.63;;;13.60;99.90;;;;;;4958509;28;20446;-71
2023/08/05 02:02:11;;;;;;;9.68;4.80;;;13.60;99.90;;;;;;4942520;28;20130;-69
2023/08/05 02:04:56;;;;;;;8.70;4.75;;;13.60;99.90;;;;;;4944174;28;20043;-70
2023/08/05 02:07:22;;;;;;;8.27;4.03;;;13.60;99.90;;;;;;4942980;28;20428;-72
2023/08/05 02:09:54;;;;;;;6.30;4.00;;;13.50;99.90;;;;;;4927740;28;20168;-70
2023/08/05 02:12:19;;;;;;;8.48;4.00;;;13.50;99.90;;;;;;4943033;28;20113;-71
2023/08/05 02:14:45;;;;;;;7.95;4.70;;;13.40;99.90;;;;;;4942327;28;20043;-69
2023/08/05 02:17:15;;;;;;;7.28;3.40;;;13.40;99.90;;;;;;4942561;28;20039;-69
2023/08/05 02:19:43;;;;;;;;;;;13.30;99.90;;;;;;4927905;28;20136;-69
2023/08/05 02:22:09;;;;;;;6.55;3.50;;;13.30;99.90;;;;;;4957827;28;20347;-69
2023/08/05 02:24:35;;;;;;;7.20;3.60;;;13.30;99.90;;;;;;4941742;28;20384;-70
2023/08/05 02:27:01;;;;;;;6.35;3.20;;;13.30;99.90;;;;;;4958087;28;20045;-68
2023/08/05 02:29:30;;;;;;;7.55;3.47;;;13.30;99.90;;;;;;4958181;28;20034;-70
2023/08/05 02:31:55;;;;;;;7.75;4.25;;;13.30;99.90;;;;;;4926358;28;20101;-69
2023/08/05 02:34:22;;;;;;;7.25;4.10;;;13.30;99.90;;;;;;4941928;28;20054;-69
2023/08/05 02:36:48;;;;;;;6.20;3.40;;;13.30;99.90;;;;;;4958339;28;20047;-69
2023/08/05 02:39:14;;;;;;;8.20;4.35;;;13.10;99.90;;;;;;4941815;28;20059;-69
2023/08/05 02:41:41;;;;;;;7.25;3.60;;;13.10;99.90;;;;;;4957703;28;20046;-70
2023/08/05 02:44:07;;;;;;;6.97;4.05;;;13.00;99.90;;;;;;4957904;28;20042;-70
2023/08/05 02:46:42;;;;;;;7.43;3.65;;;13.00;99.90;;;;;;4941803;28;20118;-70
2023/08/05 02:49:08;;;;;;;7.22;4.20;;;12.90;99.90;;;;;;4942867;28;20483;-70
2023/08/05 02:51:37;;;;;;;7.32;4.30;;;12.90;99.90;;;;;;4957840;28;20076;-70
2023/08/05 02:54:06;;;;;;;7.75;3.80;;;12.80;99.90;;;;;;4926197;28;20035;-70
2023/08/05 02:56:39;;;;;;;8.20;3.85;;;12.80;99.90;;;;;;4957432;28;20055;-70
2023/08/05 02:59:05;;;;;;;7.25;3.45;;;12.80;99.90;;;;;;4942920;28;20068;-69
2023/08/05 03:01:31;;;;;;;5.50;3.22;;;12.80;99.90;;;;;;4941641;28;20566;-68
2023/08/05 03:03:57;;;;;;;7.70;3.58;;;12.80;99.90;;;;;;4941877;28;20142;-68
2023/08/05 03:06:22;;;;;;;6.20;3.30;;;12.80;99.90;;;;;;4941664;28;20126;-69
2023/08/05 03:08:51;;;;;;;7.90;3.60;;;12.90;99.90;;;;;;4941703;28;20130;-69
2023/08/05 03:11:17;;;;;;;6.82;3.33;;;12.90;99.90;;;;;;4941690;28;20043;-70
2023/08/05 03:13:44;;;;;;;7.57;3.38;;;13.00;99.90;;;;;;4957543;28;20057;-70
2023/08/05 03:16:11;;;;;;;6.43;3.40;;;12.90;99.90;;;;;;4941363;28;20035;-69
2023/08/05 03:18:37;;;;;;;6.35;3.47;;;12.90;99.90;;;;;;4957292;28;20050;-69
2023/08/05 03:21:04;;;;;;;7.38;3.60;;;12.90;99.90;;;;;;4941571;28;20084;-69
2023/08/05 03:23:30;;;;;;;6.53;3.40;;;13.00;99.90;;;;;;4957125;28;20078;-69
2023/08/05 03:25:56;;;;;;;6.40;3.20;;;12.90;99.90;;;;;;4957157;28;20101;-70
2023/08/05 03:28:22;;;;;;;6.43;3.40;;;12.90;99.90;;;;;;4940886;28;20050;-69
2023/08/05 03:30:51;;;;;;;6.82;3.70;;;12.90;99.90;;;;;;4941179;28;20454;-70
2023/08/05 03:33:20;;;;;;;8.10;3.40;;;12.90;99.90;;;;;;4956841;28;20043;-69
2023/08/05 03:35:46;;;;;;;7.18;3.80;;;12.90;99.90;;;;;;4941360;28;20106;-68
2023/08/05 03:38:12;;;;;;;8.23;3.83;;;12.90;99.90;;;;;;4941125;28;20070;-69
2023/08/05 03:40:38;;;;;;;6.05;3.40;;;12.90;99.90;;;;;;4957292;28;20046;-68
2023/08/05 03:43:04;;;;;;;7.82;4.28;;;12.80;99.90;;;;;;4925365;28;20047;-69
2023/08/05 03:45:30;;;;;;;8.60;3.88;;;12.80;99.90;;;;;;4940933;28;20050;-69
2023/08/05 03:47:56;;;;;;;9.65;4.78;;;12.80;99.90;;;;;;4941105;28;20131;-69
2023/08/05 03:50:22;;;;;;;8.98;5.28;;;12.70;99.90;;;;;;4957164;28;20038;-68
2023/08/05 03:52:53;;;;;;;6.97;4.60;;;12.70;99.90;;;;;;4957035;28;20039;-69
2023/08/05 03:55:19;;;;;;;8.38;4.40;;;12.60;99.90;;;;;;4940916;28;20046;-68
2023/08/05 03:57:46;;;;;;;6.97;4.05;;;12.70;99.90;;;;;;4941331;28;20054;-69
2023/08/05 04:00:13;;;;;;;6.75;3.72;;;12.70;99.90;;;;;;4941220;28;20519;-68
2023/08/05 04:02:41;;;;;;;7.45;3.90;;;12.70;99.90;;;;;;4957049;28;20125;-69
2023/08/05 04:05:11;;;;;;;8.05;4.55;;;12.60;99.90;;;;;;4956834;28;20051;-68
2023/08/05 04:07:40;;;;;;;6.53;3.75;;;12.70;99.90;;;;;;4941217;28;20129;-69
2023/08/05 04:10:12;;;;;;;7.72;4.53;;;12.60;99.90;;;;;;4926595;28;20525;-68
2023/08/05 04:12:38;;;;;;;6.65;4.32;;;12.60;99.90;;;;;;4925949;28;20047;-69
2023/08/05 04:15:08;;;;;;;6.85;3.95;;;12.60;99.90;;;;;;4940942;28;20042;-70
2023/08/05 04:17:37;;;;;;;9.85;4.97;;;12.70;99.90;;;;;;4940757;28;20046;-68
2023/08/05 04:20:03;;;;;;;7.63;4.90;;;12.70;99.90;;;;;;4941044;28;20525;-68
2023/08/05 04:22:34;;;;;;;9.18;5.38;;;12.70;99.90;;;;;;4941082;28;20042;-69
2023/08/05 04:25:00;;;;;;;11.70;6.80;;;12.80;99.90;;;;;;4940609;28;20058;-68
2023/08/05 04:27:26;;;;;;;9.45;4.20;;;12.80;99.90;;;;;;4956858;28;20042;-68
2023/08/05 04:30:02;;;;;;;10.30;6.10;;;12.80;99.90;;;;;;4940773;28;20054;-68
2023/08/05 04:32:28;;;;;;;12.32;7.55;;;12.90;99.90;;;;;;4926354;28;20068;-68
2023/08/05 04:34:56;;;;;;;10.40;6.32;;;12.90;99.90;;;;;;4940535;28;20049;-69
2023/08/05 04:37:22;;;;;;;12.45;6.70;;;12.90;99.90;;;;;;4940932;28;20047;-69
2023/08/05 04:39:49;;;;;;;10.35;6.68;;;12.90;99.90;;;;;;4940469;28;20410;-68
2023/08/05 04:42:18;;;;;;;9.38;6.30;;;12.90;99.90;;;;;;4940611;28;20053;-69
2023/08/05 04:44:44;;;;;;;10.32;7.22;;;12.90;99.90;;;;;;4956313;28;20049;-69
2023/08/05 04:47:10;;;;;;;11.27;6.30;;;13.00;99.90;;;;;;4959293;28;20042;-68
2023/08/05 04:49:40;;;;;;;10.18;5.15;;;13.00;99.90;;;;;;4960097;28;20066;-69
2023/08/05 04:52:06;;;;;;;10.40;6.03;;;13.00;99.90;;;;;;4944308;28;20045;-69
2023/08/05 04:54:37;;;;;;;9.63;5.82;;;13.00;99.90;;;;;;4959977;28;20105;-68
2023/08/05 04:57:04;;;;;;;11.02;5.85;;;13.00;99.90;;;;;;4959995;28;20085;-68
2023/08/05 04:59:30;;;;;;;11.43;7.32;;;13.00;99.90;;;;;;4943725;28;20127;-67
2023/08/05 05:01:56;;;;;;;10.75;6.13;;;13.00;99.90;;;;;;4943682;28;20050;-68
2023/08/05 05:04:21;;;;;;;12.25;6.28;;;13.00;99.90;;;;;;4943620;28;20043;-68
2023/08/05 05:06:47;;;;;;;11.07;6.22;;;13.00;99.90;;;;;;4943679;28;20106;-67
2023/08/05 05:09:13;;;;;;;9.82;5.20;;;13.00;99.90;;;;;;4943641;28;20046;-69
2023/08/05 05:11:39;;;;;;;10.52;5.10;;;12.90;99.90;;;;;;4959509;28;20403;-68
2023/08/05 05:14:06;;;;;;;9.32;5.70;;;13.00;99.90;;;;;;4943945;28;20046;-69
2023/08/05 05:16:32;;;;;;;8.88;5.68;;;13.00;99.90;;;;;;4928146;28;20043;-69
2023/08/05 05:18:58;;;;;;;9.27;5.55;;;13.00;99.90;;;;;;4943451;28;20046;-69
2023/08/05 05:21:24;;;;;;;8.57;5.53;;;13.10;99.90;;;;;;4959221;28;20113;-69
2023/08/05 05:23:53;;;;;;;10.60;6.13;;;13.30;99.90;;;;;;4943583;28;20076;-70
2023/08/05 05:26:18;;;;;;;12.02;6.30;;;13.30;99.90;;;;;;4943326;28;20049;-67
2023/08/05 05:28:44;;;;;;;11.35;6.55;;;13.40;99.90;;;;;;4943460;28;20030;-69
2023/08/05 05:31:10;;;;;;;10.48;6.80;;;13.80;99.90;;;;;;4943580;28;20039;-68
2023/08/05 05:33:36;;;;;;;9.07;5.40;;;14.40;99.90;;;;;;4943137;28;20042;-69
2023/08/05 05:36:02;;;;;;;9.95;4.82;;;14.80;99.90;;;;;;4943608;28;20127;-69
2023/08/05 05:38:31;;;;;;;8.73;5.72;;;15.00;99.90;;;;;;4943188;28;20055;-70
2023/08/05 05:40:57;;;;;;;9.25;5.40;;;15.20;99.90;;;;;;4943784;28;20519;-69
2023/08/05 05:43:23;;;;;;;8.77;5.28;;;15.40;99.90;;;;;;4958763;28;20089;-69
2023/08/05 05:45:53;;;;;;;8.23;4.65;;;15.60;99.90;;;;;;4942726;28;20078;-69
2023/08/05 05:48:19;;;;;;;11.00;4.07;;;16.00;99.90;;;;;;4959141;28;20081;-69
2023/08/05 05:50:45;;;;;;;7.97;3.90;;;16.30;99.90;;;;;;4958717;28;20035;-69
2023/08/05 05:53:13;;;;;;;9.23;3.75;;;16.50;99.90;;;;;;4958792;28;20039;-69
2023/08/05 05:55:44;;;;;;;8.40;3.80;;;16.60;99.90;;;;;;4959031;28;20174;-68
2023/08/05 05:58:12;;;;;;;8.35;3.80;;;17.00;99.90;;;;;;4958430;28;20046;-69
2023/08/05 06:00:41;;;;;;;9.02;4.38;;;17.20;99.90;;;;;;4958830;28;20514;-69
2023/08/05 06:03:09;;;;;;;7.57;4.20;;;17.10;99.90;;;;;;4942843;28;20047;-69
2023/08/05 06:05:35;;;;;;;7.72;4.13;;;17.00;99.90;;;;;;4958344;28;20047;-70
2023/08/05 06:08:01;;;;;;;8.32;4.38;;;16.80;99.90;;;;;;4958818;28;20554;-69
2023/08/05 06:10:27;;;;;;;7.70;4.57;;;16.70;99.90;;;;;;4958496;28;20039;-69
2023/08/05 06:12:56;;;;;;;8.63;4.63;;;16.60;99.90;;;;;;4942737;28;20039;-70
2023/08/05 06:15:25;;;;;;;10.48;5.20;;;16.60;99.90;;;;;;4942733;28;20117;-69
2023/08/05 06:17:51;;;;;;;9.10;4.95;;;16.80;99.90;;;;;;4958294;28;20074;-70
2023/08/05 06:20:18;;;;;;;8.43;5.15;;;16.90;99.90;;;;;;4926958;28;20046;-69
2023/08/05 06:22:43;;;;;;;11.60;6.60;;;16.80;99.90;;;;;;4958069;28;20085;-70
2023/08/05 06:25:12;;;;;;;10.63;6.60;;;16.80;99.90;;;;;;4942123;28;20047;-70
2023/08/05 06:27:38;;;;;;;8.95;6.22;;;16.60;99.90;;;;;;4942669;28;20403;-69
2023/08/05 06:30:05;;;;;;;10.75;6.75;;;16.50;99.90;;;;;;4941991;28;20101;-69
2023/08/05 06:32:31;;;;;;;9.38;5.95;;;16.50;99.90;;;;;;4942521;28;20043;-69
2023/08/05 06:35:00;;;;;;;9.18;5.03;;;16.90;99.90;;;;;;4957931;28;20073;-70
2023/08/05 06:37:26;;;;;;;7.38;4.40;;;17.10;99.90;;;;;;4942613;28;20043;-69
2023/08/05 06:39:51;;;;;;;8.80;4.63;;;17.20;99.90;;;;;;4957514;28;20395;-70
2023/08/05 06:42:23;;;;;;;8.05;4.75;;;17.30;99.90;;;;;;4958270;28;20506;-69
2023/08/05 06:44:52;;;;;;;;;;;17.20;99.90;;;;;;4926802;28;20130;-69
2023/08/05 06:47:31;;;;;;;8.98;4.88;;;17.20;99.90;;;;;;4960108;28;20001;-68
2023/08/05 06:50:02;;;;;;;9.48;5.60;;;17.10;99.90;;;;;;4943883;28;20050;-68
2023/08/05 06:52:31;;;;;;;9.52;5.85;;;17.20;99.90;;;;;;4958699;28;20101;-67
2023/08/05 06:55:00;;;;;;;11.02;5.82;;;17.20;99.90;;;;;;4959288;28;20061;-69
2023/08/05 06:57:29;;;;;;;8.07;4.90;;;17.20;99.90;;;;;;4928812;28;20047;-69
2023/08/05 06:59:55;;;;;;;9.60;4.55;;;17.20;99.90;;;;;;4946192;28;20081;-68
2023/08/05 07:02:21;;;;;;;7.80;4.18;;;17.20;99.90;;;;;;4929868;28;20051;-68
2023/08/05 07:04:46;;;;;;;9.02;4.30;;;17.20;99.90;;;;;;4962029;28;20404;-69
2023/08/05 07:07:12;;;;;;;6.97;4.25;;;17.20;99.90;;;;;;4929607;28;20049;-68
2023/08/05 07:09:44;;;;;;;12.80;4.57;;;17.20;99.90;;;;;;4959678;28;20513;-70
2023/08/05 07:12:10;;;;;;;;;;;17.30;99.90;;;;;;4945392;28;20301;-68
2023/08/05 07:14:39;;;;;;;7.53;3.42;;;17.40;99.90;;;;;;4961792;28;19936;-68
2023/08/05 07:17:05;;;;;;;7.35;3.30;;;17.40;99.90;;;;;;4944952;28;20411;-68
2023/08/05 07:19:31;;;;;;;7.70;3.30;;;17.40;99.90;;;;;;4944401;28;20097;-68
2023/08/05 07:22:00;;;;;;;8.73;3.22;;;17.30;99.90;;;;;;4960992;28;20038;-68
2023/08/05 07:24:35;;;;;;;8.27;3.13;;;17.30;99.90;;;;;;4960913;28;20475;-69
2023/08/05 07:27:01;;;;;;;9.23;3.30;;;17.30;99.90;;;;;;4960493;28;20061;-66
2023/08/05 07:29:34;;;;;;;8.55;3.28;;;17.30;99.90;;;;;;4942432;28;20109;-68
2023/08/05 07:32:00;;;;;;;8.68;3.20;;;17.30;99.90;;;;;;4942006;28;20133;-68
2023/08/05 07:34:30;;;;;;;7.45;3.28;;;17.30;99.90;;;;;;4941648;28;20136;-69
2023/08/05 07:36:56;;;;;;;8.10;3.20;;;17.50;99.90;;;;;;4943259;28;20491;-69
2023/08/05 07:39:33;;;;;;;7.35;2.85;;;17.80;99.90;;;;;;4958019;28;20487;-69
2023/08/05 07:42:03;;;;;;;6.65;2.67;;;18.10;99.90;;;;;;4947709;28;20054;-68
2023/08/05 07:44:32;;;;;;;6.78;2.60;;;18.20;99.90;;;;;;4962399;28;20043;-69
2023/08/05 07:47:01;;;;;;;6.85;2.58;;;18.30;99.90;;;;;;4962889;28;20101;-69
2023/08/05 07:49:27;;;;;;;8.32;2.80;;;18.30;99.90;;;;;;4962551;28;20039;-68
2023/08/05 07:51:53;;;;;;;7.68;2.95;;;18.40;99.90;;;;;;4945512;28;20097;-68
2023/08/05 07:54:26;;;;;;;6.82;2.80;;;18.50;99.90;;;;;;4961296;28;20070;-70
2023/08/05 07:56:54;;;;;;;8.65;3.00;;;18.60;99.90;;;;;;4960048;28;20042;-68
2023/08/05 07:59:20;;;;;;;7.07;2.63;;;18.80;99.90;;;;;;4941574;28;20092;-68
2023/08/05 08:01:46;;;;;;;6.00;2.60;;;18.80;99.90;;;;;;4956843;28;20078;-68
2023/08/05 08:04:14;;;;;;;7.20;2.78;;;18.80;99.90;;;;;;4956918;28;20499;-68
2023/08/05 08:06:43;;;;;;;6.75;2.60;;;18.80;99.90;;;;;;4956929;28;20470;-70
2023/08/05 08:09:09;;;;;;;7.47;2.55;;;18.80;99.90;;;;;;4956778;28;20046;-69
2023/08/05 08:11:35;;;;;;;7.68;2.60;;;18.80;99.90;;;;;;4940781;28;20051;-70
2023/08/05 08:14:03;;;;;;;7.82;2.67;;;18.80;99.90;;;;;;4925430;28;20491;-69
2023/08/05 08:16:28;;;;;;;7.22;2.67;;;18.90;99.90;;;;;;4957029;28;20053;-68
2023/08/05 08:18:54;;;;;;;6.55;2.60;;;19.00;99.90;;;;;;4940734;28;20499;-69
2023/08/05 08:21:23;;;;;;;6.55;2.42;;;19.20;99.90;;;;;;4943736;28;20418;-68
2023/08/05 08:23:49;;;;;;;6.43;2.17;;;19.30;99.90;;;;;;4944442;28;20043;-69
2023/08/05 08:26:15;;;;;;;7.13;2.53;;;19.30;99.90;;;;;;4944531;28;20451;-69
2023/08/05 08:28:48;;;;;;;5.90;2.35;;;19.20;99.90;;;;;;4944680;28;20475;-69
2023/08/05 08:31:14;;;;;;;5.88;2.65;;;19.10;99.90;;;;;;4960194;28;20039;-67
2023/08/05 08:33:40;;;;;;;6.60;2.15;;;19.00;99.90;;;;;;4928488;28;20049;-68
2023/08/05 08:36:06;;;;;;;6.65;1.98;;;19.00;99.90;;;;;;4960029;28;20050;-69
2023/08/05 08:38:32;;;;;;;5.18;2.13;;;19.20;99.90;;;;;;4928351;28;20042;-67
2023/08/05 08:40:58;;;;;;;6.07;2.10;;;19.30;99.90;;;;;;4959858;28;20492;-69
2023/08/05 08:43:24;;;;;;;6.75;2.30;;;19.40;99.90;;;;;;4960246;28;20526;-69
2023/08/05 08:46:18;;;;;;;5.97;2.10;;;19.50;99.90;;;;;;4960234;28;20042;-68
2023/08/05 08:48:44;;;;;;;6.32;2.17;;;19.60;99.90;;;;;;4959756;28;20047;-69
2023/08/05 08:51:12;;;;;;;6.00;2.28;;;19.50;99.90;;;;;;4944267;28;20043;-69
2023/08/05 08:53:38;;;;;;;5.55;2.33;;;19.50;99.90;;;;;;4943986;28;20043;-68
2023/08/05 08:56:04;;;;;;;6.90;2.50;;;19.50;99.90;;;;;;4944116;28;20125;-69
2023/08/05 08:58:29;;;;;;;4.80;2.03;;;19.70;99.90;;;;;;4959785;28;20035;-68
2023/08/05 09:00:58;;;;;;;6.95;2.22;;;19.80;99.90;;;;;;4959680;28;20043;-70
2023/08/05 09:03:25;;;;;;;6.55;2.53;;;19.80;99.90;;;;;;4960098;28;20056;-69
2023/08/05 09:05:56;;;;;;;5.63;2.30;;;19.90;99.90;;;;;;4959893;28;20061;-69
2023/08/05 09:08:22;;;;;;;5.70;2.43;;;20.00;99.90;;;;;;4959635;28;20043;-69
2023/08/05 09:10:48;;;;;;;6.35;2.20;;;20.20;99.90;;;;;;4959646;28;20121;-69
2023/08/05 09:13:29;;;;;;;6.13;2.40;;;20.40;99.90;;;;;;4944069;28;20046;-69
2023/08/05 09:15:55;;;;;;;5.22;2.20;;;20.60;99.90;;;;;;4945104;28;20039;-68
2023/08/05 09:18:20;;;;;;;6.75;2.17;;;20.70;99.90;;;;;;4943537;28;20046;-69
2023/08/05 09:20:50;;;;;;;7.75;2.13;;;20.80;99.90;;;;;;4959335;28;20400;-68
2023/08/05 09:23:16;;;;;;;5.95;2.35;;;20.80;99.90;;;;;;4959169;28;20039;-69
2023/08/05 09:25:45;;;;;;;5.68;2.30;;;20.70;99.90;;;;;;4959164;28;20521;-69
2023/08/05 09:28:11;;;;;;;5.07;2.10;;;20.50;99.90;;;;;;4959239;28;20051;-69
2023/08/05 09:30:37;;;;;;;6.55;2.60;;;20.40;99.90;;;;;;4943320;28;20450;-68
2023/08/05 09:33:12;;;;;;;5.65;2.20;;;20.40;99.90;;;;;;4958787;28;20077;-69
2023/08/05 09:35:38;;;;;;;5.40;2.22;;;20.40;99.90;;;;;;4959012;28;20097;-68
2023/08/05 09:38:10;;;;;;;5.80;2.20;;;20.50;99.90;;;;;;4959167;28;20451;-68
2023/08/05 09:40:41;;;;;;;5.38;2.10;;;20.50;99.90;;;;;;4958741;28;20094;-69
2023/08/05 09:43:14;;;;;;;6.00;2.15;;;20.50;99.90;;;;;;4943622;28;20137;-68
2023/08/05 09:45:43;;;;;;;5.53;2.05;;;20.60;99.90;;;;;;4958652;28;20400;-68
2023/08/05 09:48:16;;;;;;;5.95;2.28;;;20.60;99.90;;;;;;4943557;28;20078;-69
2023/08/05 09:50:50;;;;;;;6.75;1.88;;;20.60;99.90;;;;;;4958841;28;20101;-69
2023/08/05 09:53:22;;;;;;;5.50;2.00;;;20.50;99.90;;;;;;4958760;28;20038;-69
2023/08/05 09:55:47;;;;;;;5.18;2.13;;;20.50;99.90;;;;;;4943079;28;20046;-69
2023/08/05 09:58:27;;;;;;;6.28;2.15;;;20.50;99.90;;;;;;4943006;28;20042;-70
2023/08/05 10:00:55;;;;;;;6.50;2.10;;;20.70;99.90;;;;;;4958627;28;20038;-70
2023/08/05 10:03:21;;;;;;;5.72;1.75;;;21.00;99.90;;;;;;4958778;28;20526;-68
2023/08/05 10:05:48;;;;;;;4.40;1.80;;;21.10;99.90;;;;;;4958517;28;20069;-69
2023/08/05 10:08:14;;;;;;;5.28;2.17;;;21.00;99.90;;;;;;4927019;28;20130;-70
2023/08/05 10:10:41;;;;;;;4.80;1.90;;;20.80;99.90;;;;;;4942813;28;20123;-69
2023/08/05 10:13:17;;;;;;;5.32;2.28;;;20.60;99.90;;;;;;4959009;28;20051;-69
2023/08/05 10:15:47;;;;;;;5.72;2.20;;;20.50;99.90;;;;;;4958457;28;20078;-69
2023/08/05 10:18:15;;;;;;;5.78;2.05;;;20.40;99.90;;;;;;4958393;28;20034;-68
2023/08/05 10:20:41;;;;;;;4.32;1.70;;;20.30;99.90;;;;;;4958237;28;20038;-69
2023/08/05 10:23:09;;;;;;;4.10;1.50;;;20.20;99.90;;;;;;4958251;28;20057;-69
2023/08/05 10:25:44;;;;;;;4.68;1.92;;;20.10;99.90;;;;;;4942229;28;20110;-69
2023/08/05 10:28:31;;;;;;;6.38;1.90;;;19.90;99.90;;;;;;4958194;28;20043;-69
2023/08/05 10:31:05;;;;;;;4.93;1.95;;;19.80;99.90;;;;;;4958250;28;20046;-69
2023/08/05 10:33:32;;;;;;;4.78;1.83;;;20.00;99.90;;;;;;4975305;28;20035;-69
2023/08/05 10:36:10;;;;;;;5.35;1.98;;;20.40;99.90;;;;;;4957963;28;20039;-70
2023/08/05 10:38:42;;;;;;;5.25;2.05;;;20.80;99.90;;;;;;4958184;28;20047;-68
2023/08/05 10:41:15;;;;;;;6.30;2.00;;;21.00;99.90;;;;;;4957806;28;20047;-69
2023/08/05 10:43:48;;;;;;;5.00;1.98;;;21.30;99.90;;;;;;4931177;28;20088;-69
2023/08/05 10:46:17;;;;;;;6.07;2.30;;;21.50;99.90;;;;;;4958029;28;20443;-68
2023/08/05 10:48:45;;;;;;;4.82;2.00;;;21.60;99.90;;;;;;4942087;28;20043;-69
2023/08/05 10:51:13;;;;;;;6.22;2.20;;;21.60;99.90;;;;;;4941787;28;20074;-68
2023/08/05 10:53:59;;;;;;;6.43;2.92;;;21.50;99.90;;;;;;4941957;28;20043;-69
2023/08/05 10:56:37;;;;;;;5.65;2.28;;;21.40;99.90;;;;;;4957659;28;20039;-68
2023/08/05 10:59:03;;;;;;;6.95;2.67;;;21.30;99.90;;;;;;4957770;28;20517;-68
2023/08/05 11:02:02;;;;;;;5.45;2.10;;;21.20;99.90;;;;;;4926075;28;20035;-67
2023/08/05 11:04:32;;;;;;;5.15;2.55;;;21.10;99.90;;;;;;4957418;28;20050;-68
2023/08/05 11:07:10;;;;;;;6.28;2.25;;;21.10;99.90;;;;;;4957370;28;20038;-69
2023/08/05 11:09:36;;;;;;;6.88;3.40;;;21.00;99.90;;;;;;4927068;28;20045;-68
2023/08/05 11:12:05;;;;;;;7.30;3.17;;;20.90;99.90;;;;;;4957783;28;20039;-68
2023/08/05 11:14:37;;;;;;;8.35;5.07;;;20.80;99.90;;;;;;4927688;28;20042;-68
2023/08/05 11:17:08;;;;;;;8.05;4.70;;;20.60;99.90;;;;;;4973481;28;20101;-69
2023/08/05 11:19:53;;;;;;;6.78;3.70;;;20.70;99.90;;;;;;4926086;28;20049;-68
2023/08/05 11:22:27;;;;;;;7.60;3.92;;;20.90;99.90;;;;;;4957504;28;20054;-68
2023/08/05 11:25:04;;;;;;;6.55;3.80;;;21.00;99.90;;;;;;4940707;28;20055;-67
2023/08/05 11:27:32;;;;;;;7.32;3.83;;;21.20;99.90;;;;;;4941549;28;20038;-70
2023/08/05 11:29:57;;;;;;;7.00;3.75;;;21.30;99.90;;;;;;4941495;28;20046;-70
2023/08/05 11:32:23;;;;;;;7.93;4.60;;;21.40;99.90;;;;;;4941175;28;20039;-70
2023/08/05 11:35:02;;;;;;;6.97;4.55;;;21.30;99.90;;;;;;4957155;28;20042;-70
2023/08/05 11:37:35;;;;;;;9.05;5.80;;;21.20;99.90;;;;;;4957140;28;20046;-70
2023/08/05 11:40:01;;;;;;;9.40;5.70;;;21.10;99.90;;;;;;4941184;28;20047;-70
2023/08/05 11:42:31;;;;;;;9.15;6.50;;;21.10;99.90;;;;;;4910833;28;20109;-69
2023/08/05 11:44:57;;;;;;;10.18;7.05;;;21.10;99.90;;;;;;4974591;28;20039;-69
2023/08/05 11:47:23;;;;;;;9.85;7.35;;;21.00;99.90;;;;;;4957000;28;20042;-69
2023/08/05 11:49:54;;;;;;;9.75;7.03;;;20.90;99.90;;;;;;4925264;28;20043;-68
2023/08/05 11:52:20;;;;;;;11.20;7.03;;;20.90;99.90;;;;;;4925234;28;20039;-70
2023/08/05 11:54:56;;;;;;;9.50;7.22;;;20.90;99.90;;;;;;4957333;28;20057;-69
2023/08/05 11:57:22;;;;;;;9.65;7.55;;;21.10;99.90;;;;;;4961157;28;20046;-68
2023/08/05 11:59:48;;;;;;;11.68;7.72;;;21.10;99.90;;;;;;4945225;28;20049;-67
2023/08/05 12:02:16;;;;;;;9.93;6.68;;;21.10;99.90;;;;;;4944965;28;20380;-67
2023/08/05 12:04:45;;;;;;;10.40;6.30;;;21.10;99.90;;;;;;4960551;28;20047;-69
2023/08/05 12:07:15;;;;;;;9.30;5.93;;;21.00;99.90;;;;;;4944867;28;20183;-66
2023/08/05 12:10:03;;;;;;;7.20;3.60;;;21.00;99.90;;;;;;4961001;28;20050;-67
2023/08/05 12:12:29;;;;;;;8.27;5.22;;;21.00;99.90;;;;;;4944606;28;20173;-66
2023/08/05 12:15:24;;;;;;;9.25;6.65;;;20.90;99.90;;;;;;4944539;28;20108;-68
2023/08/05 12:18:09;;;;;;;10.32;7.25;;;20.70;99.90;;;;;;4946799;28;20109;-68
2023/08/05 12:20:36;;;;;;;10.52;7.10;;;20.60;99.90;;;;;;4960596;28;20043;-67
2023/08/05 12:23:03;;;;;;;8.70;6.72;;;20.60;99.90;;;;;;4960405;28;20047;-72
2023/08/05 12:25:30;;;;;;;9.23;6.63;;;20.60;99.90;;;;;;4944425;28;20042;-65
2023/08/05 12:27:57;;;;;;;10.15;7.00;;;20.60;99.90;;;;;;4960601;28;20486;-66
2023/08/05 12:30:23;;;;;;;8.93;6.75;;;20.60;99.90;;;;;;4959971;28;20407;-68
2023/08/05 12:33:02;;;;;;;9.80;6.80;;;20.60;99.90;;;;;;4960635;28;20043;-67
2023/08/05 12:35:36;;;;;;;9.65;6.63;;;20.60;99.90;;;;;;4960278;28;20042;-67
2023/08/05 12:38:02;;;;;;;9.52;6.13;;;20.50;99.90;;;;;;4944370;28;20042;-67
2023/08/05 12:40:28;;;;;;;7.97;5.75;;;20.50;99.90;;;;;;4944074;28;20058;-68
2023/08/05 12:42:56;;;;;;;8.10;5.68;;;20.60;99.90;;;;;;4944468;28;20401;-67
2023/08/05 12:45:28;;;;;;;8.93;5.65;;;20.60;99.90;;;;;;4915747;28;20458;-66
2023/08/05 12:47:54;;;;;;;8.70;5.40;;;20.60;99.90;;;;;;4976190;28;20039;-67
2023/08/05 12:50:23;;;;;;;9.95;5.15;;;20.70;99.90;;;;;;4960565;28;20205;-67
2023/08/05 12:53:02;;;;;;;7.00;4.18;;;20.60;99.90;;;;;;4960331;28;20457;-67